METAR Data
IDs: Format: Raw Decoded Include TAF

Data at: 0239 UTC 25 Jan 2020

METAR for:KOLZ (Oelwein Muni, IA, US)
Text:KOLZ 250235Z AUTO 33011KT 10SM OVC008 00/00 A2989 RMK A01
Temperature: 0.0°C ( 32°F)
Dewpoint: 0.0°C ( 32°F) [RH = 100%]
Pressure (altimeter):29.89 inches Hg (1012.3 mb)
Winds:from the NNW (330 degrees) at 13 MPH (11 knots; 5.7 m/s)
Visibility:10 or more sm (16+ km)
Ceiling:800 feet AGL
Clouds: overcast cloud deck at 800 feet AGL
QC Flag:automated observation with no human augmentation